sensor_id;sensor_type;location;lat;lon;timestamp;temperature;humidity
45060;DHT22;30799;49.060;9.312;2023-01-10T00:00:30;20.40;68.30
45060;DHT22;30799;49.060;9.312;2023-01-10T00:03:02;20.30;68.20
45060;DHT22;30799;49.060;9.312;2023-01-10T00:05:28;20.40;68.30
45060;DHT22;30799;49.060;9.312;2023-01-10T00:07:55;20.40;69.10
45060;DHT22;30799;49.060;9.312;2023-01-10T00:10:22;20.40;68.30
45060;DHT22;30799;49.060;9.312;2023-01-10T00:12:48;20.40;68.30
45060;DHT22;30799;49.060;9.312;2023-01-10T00:15:34;20.40;68.20
45060;DHT22;30799;49.060;9.312;2023-01-10T00:18:02;20.40;68.20
45060;DHT22;30799;49.060;9.312;2023-01-10T00:20:29;20.40;68.30
45060;DHT22;30799;49.060;9.312;2023-01-10T00:22:56;20.30;68.30
45060;DHT22;30799;49.060;9.312;2023-01-10T00:25:23;20.40;68.30
45060;DHT22;30799;49.060;9.312;2023-01-10T00:27:53;20.40;68.40
45060;DHT22;30799;49.060;9.312;2023-01-10T00:30:39;20.40;68.40
45060;DHT22;30799;49.060;9.312;2023-01-10T00:33:07;20.30;68.40
45060;DHT22;30799;49.060;9.312;2023-01-10T00:35:46;20.40;68.40
45060;DHT22;30799;49.060;9.312;2023-01-10T00:38:13;20.30;68.30
45060;DHT22;30799;49.060;9.312;2023-01-10T00:40:40;20.30;68.40
45060;DHT22;30799;49.060;9.312;2023-01-10T00:43:08;20.30;68.30
45060;DHT22;30799;49.060;9.312;2023-01-10T00:45:54;20.30;68.40
45060;DHT22;30799;49.060;9.312;2023-01-10T00:48:20;20.40;68.40
45060;DHT22;30799;49.060;9.312;2023-01-10T00:50:47;20.30;68.40
45060;DHT22;30799;49.060;9.312;2023-01-10T00:53:14;20.30;68.40
45060;DHT22;30799;49.060;9.312;2023-01-10T00:55:41;20.40;68.40
45060;DHT22;30799;49.060;9.312;2023-01-10T00:58:07;20.30;68.40
45060;DHT22;30799;49.060;9.312;2023-01-10T01:00:40;20.30;68.40
45060;DHT22;30799;49.060;9.312;2023-01-10T01:03:07;20.30;68.30
45060;DHT22;30799;49.060;9.312;2023-01-10T01:05:39;20.30;68.20
45060;DHT22;30799;49.060;9.312;2023-01-10T01:08:07;20.30;68.30
45060;DHT22;30799;49.060;9.312;2023-01-10T01:10:34;20.30;68.30
45060;DHT22;30799;49.060;9.312;2023-01-10T01:13:10;20.40;68.30
45060;DHT22;30799;49.060;9.312;2023-01-10T01:15:38;20.30;68.30
45060;DHT22;30799;49.060;9.312;2023-01-10T01:18:05;20.30;68.30
45060;DHT22;30799;49.060;9.312;2023-01-10T01:20:32;20.30;68.30
45060;DHT22;30799;49.060;9.312;2023-01-10T01:22:59;20.30;68.30
45060;DHT22;30799;49.060;9.312;2023-01-10T01:25:26;20.30;68.30
45060;DHT22;30799;49.060;9.312;2023-01-10T01:27:53;20.30;68.40
45060;DHT22;30799;49.060;9.312;2023-01-10T01:30:19;20.30;68.30
45060;DHT22;30799;49.060;9.312;2023-01-10T01:32:46;20.30;68.40
45060;DHT22;30799;49.060;9.312;2023-01-10T01:35:14;20.30;68.30
45060;DHT22;30799;49.060;9.312;2023-01-10T01:37:41;20.30;68.40
45060;DHT22;30799;49.060;9.312;2023-01-10T01:40:16;20.30;68.40
45060;DHT22;30799;49.060;9.312;2023-01-10T01:42:44;20.30;68.30
45060;DHT22;30799;49.060;9.312;2023-01-10T01:47:42;20.30;68.30
45060;DHT22;30799;49.060;9.312;2023-01-10T01:50:34;20.30;68.30
45060;DHT22;30799;49.060;9.312;2023-01-10T01:53:31;20.30;68.30
45060;DHT22;30799;49.060;9.312;2023-01-10T01:56:00;20.30;68.30
45060;DHT22;30799;49.060;9.312;2023-01-10T01:58:47;20.30;68.30
45060;DHT22;30799;49.060;9.312;2023-01-10T02:01:15;20.30;68.30
45060;DHT22;30799;49.060;9.312;2023-01-10T02:03:46;20.30;69.00
45060;DHT22;30799;49.060;9.312;2023-01-10T02:06:15;20.30;68.30
45060;DHT22;30799;49.060;9.312;2023-01-10T02:08:46;20.30;68.20
45060;DHT22;30799;49.060;9.312;2023-01-10T02:11:16;20.30;68.20
45060;DHT22;30799;49.060;9.312;2023-01-10T02:13:44;20.30;68.20
45060;DHT22;30799;49.060;9.312;2023-01-10T02:16:12;20.30;68.10
45060;DHT22;30799;49.060;9.312;2023-01-10T02:18:39;20.30;68.10
45060;DHT22;30799;49.060;9.312;2023-01-10T02:21:52;20.30;68.10
45060;DHT22;30799;49.060;9.312;2023-01-10T02:24:32;20.30;68.10
45060;DHT22;30799;49.060;9.312;2023-01-10T02:27:13;20.30;68.10
45060;DHT22;30799;49.060;9.312;2023-01-10T02:38:19;20.20;67.90
45060;DHT22;30799;49.060;9.312;2023-01-10T02:40:51;20.20;67.90
45060;DHT22;30799;49.060;9.312;2023-01-10T02:43:25;20.20;67.80
45060;DHT22;30799;49.060;9.312;2023-01-10T02:45:59;20.20;67.80
45060;DHT22;30799;49.060;9.312;2023-01-10T02:48:28;20.20;67.80
45060;DHT22;30799;49.060;9.312;2023-01-10T02:50:59;20.20;67.70
45060;DHT22;30799;49.060;9.312;2023-01-10T02:53:33;20.20;67.70
45060;DHT22;30799;49.060;9.312;2023-01-10T03:05:09;20.20;67.60
45060;DHT22;30799;49.060;9.312;2023-01-10T03:07:53;20.20;67.50
45060;DHT22;30799;49.060;9.312;2023-01-10T03:10:27;20.20;67.60
45060;DHT22;30799;49.060;9.312;2023-01-10T03:13:09;20.20;67.50
45060;DHT22;30799;49.060;9.312;2023-01-10T03:15:40;20.20;67.50
45060;DHT22;30799;49.060;9.312;2023-01-10T03:18:18;20.20;67.40
45060;DHT22;30799;49.060;9.312;2023-01-10T03:20:48;20.20;67.50
45060;DHT22;30799;49.060;9.312;2023-01-10T03:23:18;20.20;67.30
45060;DHT22;30799;49.060;9.312;2023-01-10T03:25:47;20.20;67.30
45060;DHT22;30799;49.060;9.312;2023-01-10T03:28:19;20.20;67.20
45060;DHT22;30799;49.060;9.312;2023-01-10T03:31:04;20.20;67.00
45060;DHT22;30799;49.060;9.312;2023-01-10T03:33:33;20.20;67.20
45060;DHT22;30799;49.060;9.312;2023-01-10T03:36:21;20.20;67.10
45060;DHT22;30799;49.060;9.312;2023-01-10T03:41:47;20.20;67.20
45060;DHT22;30799;49.060;9.312;2023-01-10T03:44:32;20.20;67.20
45060;DHT22;30799;49.060;9.312;2023-01-10T03:47:32;20.20;67.20
45060;DHT22;30799;49.060;9.312;2023-01-10T03:50:05;20.20;67.20
45060;DHT22;30799;49.060;9.312;2023-01-10T03:52:33;20.20;67.10
45060;DHT22;30799;49.060;9.312;2023-01-10T03:55:01;20.20;67.10
45060;DHT22;30799;49.060;9.312;2023-01-10T03:57:28;20.20;67.00
45060;DHT22;30799;49.060;9.312;2023-01-10T03:59:56;20.20;67.10
45060;DHT22;30799;49.060;9.312;2023-01-10T04:02:28;20.20;67.10
45060;DHT22;30799;49.060;9.312;2023-01-10T04:04:56;20.20;67.00
45060;DHT22;30799;49.060;9.312;2023-01-10T04:07:25;20.20;67.20
45060;DHT22;30799;49.060;9.312;2023-01-10T04:09:51;20.20;67.10
45060;DHT22;30799;49.060;9.312;2023-01-10T04:12:18;20.20;67.10
45060;DHT22;30799;49.060;9.312;2023-01-10T04:14:45;20.20;67.10
45060;DHT22;30799;49.060;9.312;2023-01-10T04:17:14;20.20;67.10
45060;DHT22;30799;49.060;9.312;2023-01-10T04:19:41;20.20;67.10
45060;DHT22;30799;49.060;9.312;2023-01-10T04:22:09;20.20;67.10
45060;DHT22;30799;49.060;9.312;2023-01-10T04:24:36;20.20;67.10
45060;DHT22;30799;49.060;9.312;2023-01-10T04:27:03;20.20;67.20
45060;DHT22;30799;49.060;9.312;2023-01-10T04:29:30;20.20;67.10
45060;DHT22;30799;49.060;9.312;2023-01-10T04:31:57;20.20;67.20
45060;DHT22;30799;49.060;9.312;2023-01-10T04:34:23;20.20;67.10
45060;DHT22;30799;49.060;9.312;2023-01-10T04:36:50;20.20;67.20
45060;DHT22;30799;49.060;9.312;2023-01-10T04:39:17;20.20;67.20
45060;DHT22;30799;49.060;9.312;2023-01-10T04:41:43;20.20;67.20
45060;DHT22;30799;49.060;9.312;2023-01-10T04:44:10;20.20;67.20
45060;DHT22;30799;49.060;9.312;2023-01-10T04:46:37;20.20;67.20
45060;DHT22;30799;49.060;9.312;2023-01-10T04:49:03;20.20;67.20
45060;DHT22;30799;49.060;9.312;2023-01-10T04:51:31;20.20;67.20
45060;DHT22;30799;49.060;9.312;2023-01-10T04:53:58;20.20;67.20
45060;DHT22;30799;49.060;9.312;2023-01-10T04:56:25;20.20;67.20
45060;DHT22;30799;49.060;9.312;2023-01-10T04:58:51;20.20;67.30
45060;DHT22;30799;49.060;9.312;2023-01-10T05:01:24;20.20;67.30
45060;DHT22;30799;49.060;9.312;2023-01-10T05:03:53;20.20;67.30
45060;DHT22;30799;49.060;9.312;2023-01-10T05:06:21;20.20;67.30
45060;DHT22;30799;49.060;9.312;2023-01-10T05:08:49;20.20;67.30
45060;DHT22;30799;49.060;9.312;2023-01-10T05:11:15;20.20;67.40
45060;DHT22;30799;49.060;9.312;2023-01-10T05:13:42;20.20;67.40
45060;DHT22;30799;49.060;9.312;2023-01-10T05:16:09;20.20;67.40
45060;DHT22;30799;49.060;9.312;2023-01-10T05:18:35;20.20;67.40
45060;DHT22;30799;49.060;9.312;2023-01-10T05:21:04;20.20;67.40
45060;DHT22;30799;49.060;9.312;2023-01-10T05:23:32;20.20;67.30
45060;DHT22;30799;49.060;9.312;2023-01-10T05:26:09;20.20;67.40
45060;DHT22;30799;49.060;9.312;2023-01-10T05:28:37;20.20;67.30
45060;DHT22;30799;49.060;9.312;2023-01-10T05:31:08;20.20;67.30
45060;DHT22;30799;49.060;9.312;2023-01-10T05:33:35;20.20;67.30
45060;DHT22;30799;49.060;9.312;2023-01-10T05:36:04;20.20;67.30
45060;DHT22;30799;49.060;9.312;2023-01-10T05:38:32;20.20;67.30
45060;DHT22;30799;49.060;9.312;2023-01-10T05:40:59;20.20;67.20
45060;DHT22;30799;49.060;9.312;2023-01-10T05:43:27;20.20;67.30
45060;DHT22;30799;49.060;9.312;2023-01-10T05:45:54;20.20;67.30
45060;DHT22;30799;49.060;9.312;2023-01-10T05:48:20;20.20;67.30
45060;DHT22;30799;49.060;9.312;2023-01-10T05:50:49;20.20;67.30
45060;DHT22;30799;49.060;9.312;2023-01-10T05:53:17;20.20;67.30
45060;DHT22;30799;49.060;9.312;2023-01-10T05:55:51;20.20;67.30
45060;DHT22;30799;49.060;9.312;2023-01-10T05:58:17;20.20;67.30
45060;DHT22;30799;49.060;9.312;2023-01-10T06:00:44;20.20;67.30
45060;DHT22;30799;49.060;9.312;2023-01-10T06:03:11;20.20;67.40
45060;DHT22;30799;49.060;9.312;2023-01-10T06:05:37;20.20;67.40
45060;DHT22;30799;49.060;9.312;2023-01-10T06:08:04;19.30;56.30
45060;DHT22;30799;49.060;9.312;2023-01-10T06:10:30;17.70;57.20
45060;DHT22;30799;49.060;9.312;2023-01-10T06:12:57;16.80;59.40
45060;DHT22;30799;49.060;9.312;2023-01-10T06:15:24;16.20;62.40
45060;DHT22;30799;49.060;9.312;2023-01-10T06:17:50;15.80;63.00
45060;DHT22;30799;49.060;9.312;2023-01-10T06:20:17;15.50;65.20
45060;DHT22;30799;49.060;9.312;2023-01-10T06:22:44;15.40;66.90
45060;DHT22;30799;49.060;9.312;2023-01-10T06:25:11;15.40;67.30
45060;DHT22;30799;49.060;9.312;2023-01-10T06:27:42;15.40;67.00
45060;DHT22;30799;49.060;9.312;2023-01-10T06:30:11;15.50;67.00
45060;DHT22;30799;49.060;9.312;2023-01-10T06:32:38;15.60;67.70
45060;DHT22;30799;49.060;9.312;2023-01-10T06:35:06;16.70;68.40
45060;DHT22;30799;49.060;9.312;2023-01-10T06:37:33;17.60;70.20
45060;DHT22;30799;49.060;9.312;2023-01-10T06:40:00;18.20;70.50
45060;DHT22;30799;49.060;9.312;2023-01-10T06:42:26;18.50;72.10
45060;DHT22;30799;49.060;9.312;2023-01-10T06:44:53;18.70;71.90
45060;DHT22;30799;49.060;9.312;2023-01-10T06:47:20;18.80;72.70
45060;DHT22;30799;49.060;9.312;2023-01-10T06:49:46;18.90;72.70
45060;DHT22;30799;49.060;9.312;2023-01-10T06:52:13;19.00;73.20
45060;DHT22;30799;49.060;9.312;2023-01-10T06:54:40;19.10;73.50
45060;DHT22;30799;49.060;9.312;2023-01-10T06:57:07;19.10;74.50
45060;DHT22;30799;49.060;9.312;2023-01-10T06:59:34;19.20;74.60
45060;DHT22;30799;49.060;9.312;2023-01-10T07:02:01;19.20;74.50
45060;DHT22;30799;49.060;9.312;2023-01-10T07:04:27;19.30;74.50
45060;DHT22;30799;49.060;9.312;2023-01-10T07:06:54;19.30;74.50
45060;DHT22;30799;49.060;9.312;2023-01-10T07:09:21;19.30;74.40
45060;DHT22;30799;49.060;9.312;2023-01-10T07:11:47;19.30;74.30
45060;DHT22;30799;49.060;9.312;2023-01-10T07:14:14;19.40;74.40
45060;DHT22;30799;49.060;9.312;2023-01-10T07:16:41;19.40;74.30
45060;DHT22;30799;49.060;9.312;2023-01-10T07:19:08;19.40;74.20
45060;DHT22;30799;49.060;9.312;2023-01-10T07:21:35;19.40;74.30
45060;DHT22;30799;49.060;9.312;2023-01-10T07:24:01;19.50;74.30
45060;DHT22;30799;49.060;9.312;2023-01-10T07:26:28;19.50;74.30
45060;DHT22;30799;49.060;9.312;2023-01-10T07:28:55;19.50;74.30
45060;DHT22;30799;49.060;9.312;2023-01-10T07:31:22;19.50;74.30
45060;DHT22;30799;49.060;9.312;2023-01-10T07:33:50;19.50;74.20
45060;DHT22;30799;49.060;9.312;2023-01-10T07:36:18;19.50;74.10
45060;DHT22;30799;49.060;9.312;2023-01-10T07:38:45;19.60;74.20
45060;DHT22;30799;49.060;9.312;2023-01-10T07:41:12;19.60;74.20
45060;DHT22;30799;49.060;9.312;2023-01-10T07:43:38;19.60;74.20
45060;DHT22;30799;49.060;9.312;2023-01-10T07:46:06;19.60;74.20
45060;DHT22;30799;49.060;9.312;2023-01-10T07:48:38;19.60;74.10
45060;DHT22;30799;49.060;9.312;2023-01-10T07:51:07;19.70;74.10
45060;DHT22;30799;49.060;9.312;2023-01-10T07:53:33;19.70;74.20
45060;DHT22;30799;49.060;9.312;2023-01-10T07:56:02;19.70;74.20
45060;DHT22;30799;49.060;9.312;2023-01-10T07:58:28;19.70;74.20
45060;DHT22;30799;49.060;9.312;2023-01-10T08:01:00;19.70;74.30
45060;DHT22;30799;49.060;9.312;2023-01-10T08:03:27;19.70;74.20
45060;DHT22;30799;49.060;9.312;2023-01-10T08:05:59;19.70;74.20
45060;DHT22;30799;49.060;9.312;2023-01-10T08:08:26;19.70;74.20
45060;DHT22;30799;49.060;9.312;2023-01-10T08:10:54;19.80;74.40
45060;DHT22;30799;49.060;9.312;2023-01-10T08:13:22;19.80;74.30
45060;DHT22;30799;49.060;9.312;2023-01-10T08:15:48;19.80;74.30
45060;DHT22;30799;49.060;9.312;2023-01-10T08:18:18;19.80;74.30
45060;DHT22;30799;49.060;9.312;2023-01-10T08:20:48;19.80;74.30
45060;DHT22;30799;49.060;9.312;2023-01-10T08:23:15;19.80;74.30
45060;DHT22;30799;49.060;9.312;2023-01-10T08:25:41;19.80;74.30
45060;DHT22;30799;49.060;9.312;2023-01-10T08:28:08;19.80;74.30
45060;DHT22;30799;49.060;9.312;2023-01-10T08:30:36;19.80;74.30
45060;DHT22;30799;49.060;9.312;2023-01-10T08:33:04;19.80;74.30
45060;DHT22;30799;49.060;9.312;2023-01-10T08:35:36;19.80;74.30
45060;DHT22;30799;49.060;9.312;2023-01-10T08:38:03;19.80;74.30
45060;DHT22;30799;49.060;9.312;2023-01-10T08:40:30;19.80;74.30
45060;DHT22;30799;49.060;9.312;2023-01-10T08:42:58;19.80;74.30
45060;DHT22;30799;49.060;9.312;2023-01-10T08:45:25;19.80;74.30
45060;DHT22;30799;49.060;9.312;2023-01-10T08:47:52;19.80;74.30
45060;DHT22;30799;49.060;9.312;2023-01-10T08:50:19;19.90;74.30
45060;DHT22;30799;49.060;9.312;2023-01-10T08:52:46;19.90;74.40
45060;DHT22;30799;49.060;9.312;2023-01-10T08:55:13;19.90;74.30
45060;DHT22;30799;49.060;9.312;2023-01-10T08:57:40;19.90;74.30
45060;DHT22;30799;49.060;9.312;2023-01-10T09:00:07;19.90;74.40
45060;DHT22;30799;49.060;9.312;2023-01-10T09:02:34;19.90;74.40
45060;DHT22;30799;49.060;9.312;2023-01-10T09:05:00;19.90;74.30
45060;DHT22;30799;49.060;9.312;2023-01-10T09:07:27;19.90;74.30
45060;DHT22;30799;49.060;9.312;2023-01-10T09:09:54;19.90;74.30
45060;DHT22;30799;49.060;9.312;2023-01-10T09:12:20;19.90;74.30
45060;DHT22;30799;49.060;9.312;2023-01-10T09:15:06;19.90;74.30
45060;DHT22;30799;49.060;9.312;2023-01-10T09:17:33;19.90;74.40
45060;DHT22;30799;49.060;9.312;2023-01-10T09:20:00;19.90;74.40
45060;DHT22;30799;49.060;9.312;2023-01-10T09:22:31;19.90;74.40
45060;DHT22;30799;49.060;9.312;2023-01-10T09:24:58;19.90;74.40
45060;DHT22;30799;49.060;9.312;2023-01-10T09:27:25;19.90;74.20
45060;DHT22;30799;49.060;9.312;2023-01-10T09:29:51;19.90;74.30
45060;DHT22;30799;49.060;9.312;2023-01-10T09:32:18;19.90;74.30
45060;DHT22;30799;49.060;9.312;2023-01-10T09:34:45;19.90;74.30
45060;DHT22;30799;49.060;9.312;2023-01-10T09:37:12;19.90;74.30
45060;DHT22;30799;49.060;9.312;2023-01-10T09:39:38;20.00;74.40
45060;DHT22;30799;49.060;9.312;2023-01-10T09:47:47;20.00;74.30
45060;DHT22;30799;49.060;9.312;2023-01-10T09:50:37;19.90;74.20
45060;DHT22;30799;49.060;9.312;2023-01-10T09:53:10;20.00;74.30
45060;DHT22;30799;49.060;9.312;2023-01-10T09:55:38;20.00;74.30
45060;DHT22;30799;49.060;9.312;2023-01-10T09:58:13;20.00;74.30
45060;DHT22;30799;49.060;9.312;2023-01-10T10:00:55;20.00;74.40
45060;DHT22;30799;49.060;9.312;2023-01-10T10:04:05;20.00;74.30
45060;DHT22;30799;49.060;9.312;2023-01-10T10:06:32;20.00;74.30
45060;DHT22;30799;49.060;9.312;2023-01-10T10:09:00;20.00;74.20
45060;DHT22;30799;49.060;9.312;2023-01-10T10:11:48;20.00;74.30
45060;DHT22;30799;49.060;9.312;2023-01-10T10:14:21;20.00;74.30
45060;DHT22;30799;49.060;9.312;2023-01-10T10:17:14;20.00;74.30
45060;DHT22;30799;49.060;9.312;2023-01-10T10:19:53;20.00;74.30
45060;DHT22;30799;49.060;9.312;2023-01-10T10:25:38;20.00;74.20
45060;DHT22;30799;49.060;9.312;2023-01-10T10:37:12;20.10;74.40
45060;DHT22;30799;49.060;9.312;2023-01-10T10:39:53;20.00;74.40
45060;DHT22;30799;49.060;9.312;2023-01-10T10:42:21;20.10;74.50
45060;DHT22;30799;49.060;9.312;2023-01-10T10:47:29;20.10;74.30
45060;DHT22;30799;49.060;9.312;2023-01-10T10:52:41;20.10;74.40
45060;DHT22;30799;49.060;9.312;2023-01-10T10:55:14;20.10;74.30
45060;DHT22;30799;49.060;9.312;2023-01-10T10:57:42;20.10;74.30
45060;DHT22;30799;49.060;9.312;2023-01-10T11:00:25;20.10;74.30
45060;DHT22;30799;49.060;9.312;2023-01-10T11:05:47;20.10;74.20
45060;DHT22;30799;49.060;9.312;2023-01-10T11:08:16;20.10;74.30
45060;DHT22;30799;49.060;9.312;2023-01-10T11:10:52;20.10;74.30
45060;DHT22;30799;49.060;9.312;2023-01-10T11:16:04;20.10;74.30
45060;DHT22;30799;49.060;9.312;2023-01-10T11:18:32;20.10;74.20
45060;DHT22;30799;49.060;9.312;2023-01-10T11:21:14;20.20;74.20
45060;DHT22;30799;49.060;9.312;2023-01-10T11:23:53;20.10;74.20
45060;DHT22;30799;49.060;9.312;2023-01-10T11:26:35;20.20;74.20
45060;DHT22;30799;49.060;9.312;2023-01-10T11:29:17;20.20;74.20
45060;DHT22;30799;49.060;9.312;2023-01-10T11:31:45;20.10;74.20
45060;DHT22;30799;49.060;9.312;2023-01-10T11:37:02;20.10;74.20
45060;DHT22;30799;49.060;9.312;2023-01-10T11:39:30;20.10;74.20
45060;DHT22;30799;49.060;9.312;2023-01-10T11:44:49;20.10;74.20
45060;DHT22;30799;49.060;9.312;2023-01-10T11:47:16;20.20;74.30
45060;DHT22;30799;49.060;9.312;2023-01-10T11:49:47;20.10;74.30
45060;DHT22;30799;49.060;9.312;2023-01-10T11:52:27;20.20;74.40
45060;DHT22;30799;49.060;9.312;2023-01-10T11:54:58;20.10;74.40
45060;DHT22;30799;49.060;9.312;2023-01-10T11:57:30;20.20;74.40
45060;DHT22;30799;49.060;9.312;2023-01-10T12:00:03;20.20;74.40
45060;DHT22;30799;49.060;9.312;2023-01-10T12:02:38;20.10;74.30
45060;DHT22;30799;49.060;9.312;2023-01-10T12:05:09;20.10;74.20
45060;DHT22;30799;49.060;9.312;2023-01-10T12:07:59;20.20;74.20
45060;DHT22;30799;49.060;9.312;2023-01-10T12:10:33;20.10;74.20
45060;DHT22;30799;49.060;9.312;2023-01-10T12:13:13;20.20;74.20
45060;DHT22;30799;49.060;9.312;2023-01-10T12:15:40;20.20;74.30
45060;DHT22;30799;49.060;9.312;2023-01-10T12:18:09;20.20;74.20
45060;DHT22;30799;49.060;9.312;2023-01-10T12:20:47;20.20;74.20
45060;DHT22;30799;49.060;9.312;2023-01-10T12:23:18;20.20;74.20
45060;DHT22;30799;49.060;9.312;2023-01-10T12:25:46;20.20;74.20
45060;DHT22;30799;49.060;9.312;2023-01-10T12:28:18;20.20;74.20
45060;DHT22;30799;49.060;9.312;2023-01-10T12:30:47;20.20;74.20
45060;DHT22;30799;49.060;9.312;2023-01-10T12:33:32;20.20;74.30
45060;DHT22;30799;49.060;9.312;2023-01-10T12:38:49;20.20;74.20
45060;DHT22;30799;49.060;9.312;2023-01-10T12:44:34;20.20;74.30
45060;DHT22;30799;49.060;9.312;2023-01-10T12:50:21;20.20;74.30
45060;DHT22;30799;49.060;9.312;2023-01-10T12:52:45;20.20;74.20
45060;DHT22;30799;49.060;9.312;2023-01-10T12:55:23;20.20;74.20
45060;DHT22;30799;49.060;9.312;2023-01-10T12:57:56;20.20;74.20
45060;DHT22;30799;49.060;9.312;2023-01-10T13:00:29;20.20;74.20
45060;DHT22;30799;49.060;9.312;2023-01-10T13:03:09;20.20;74.30
45060;DHT22;30799;49.060;9.312;2023-01-10T13:05:37;20.20;74.30
45060;DHT22;30799;49.060;9.312;2023-01-10T13:08:06;20.20;74.30
45060;DHT22;30799;49.060;9.312;2023-01-10T13:10:41;20.20;74.30
45060;DHT22;30799;49.060;9.312;2023-01-10T13:13:35;20.20;74.20
45060;DHT22;30799;49.060;9.312;2023-01-10T13:16:44;20.30;74.30
45060;DHT22;30799;49.060;9.312;2023-01-10T13:21:45;20.30;74.40
45060;DHT22;30799;49.060;9.312;2023-01-10T13:24:24;20.30;74.40
45060;DHT22;30799;49.060;9.312;2023-01-10T13:26:58;20.20;74.30
45060;DHT22;30799;49.060;9.312;2023-01-10T13:29:37;20.30;74.40
45060;DHT22;30799;49.060;9.312;2023-01-10T13:32:24;20.30;74.30
45060;DHT22;30799;49.060;9.312;2023-01-10T13:34:52;20.20;74.20
45060;DHT22;30799;49.060;9.312;2023-01-10T13:37:34;20.30;74.30
45060;DHT22;30799;49.060;9.312;2023-01-10T13:40:02;20.30;74.20
45060;DHT22;30799;49.060;9.312;2023-01-10T13:55:32;20.30;74.20
45060;DHT22;30799;49.060;9.312;2023-01-10T14:01:31;20.30;74.30
45060;DHT22;30799;49.060;9.312;2023-01-10T14:04:30;20.30;74.20
45060;DHT22;30799;49.060;9.312;2023-01-10T14:07:00;20.30;74.20
45060;DHT22;30799;49.060;9.312;2023-01-10T14:11:57;20.30;74.20
45060;DHT22;30799;49.060;9.312;2023-01-10T14:14:31;20.30;74.20
45060;DHT22;30799;49.060;9.312;2023-01-10T14:17:18;20.30;74.20
45060;DHT22;30799;49.060;9.312;2023-01-10T14:19:48;20.30;74.10
45060;DHT22;30799;49.060;9.312;2023-01-10T14:22:28;20.30;74.10
45060;DHT22;30799;49.060;9.312;2023-01-10T14:24:59;20.30;74.00
45060;DHT22;30799;49.060;9.312;2023-01-10T14:27:43;20.40;74.10
45060;DHT22;30799;49.060;9.312;2023-01-10T14:32:57;20.40;74.00
45060;DHT22;30799;49.060;9.312;2023-01-10T14:35:33;20.40;74.10
45060;DHT22;30799;49.060;9.312;2023-01-10T14:38:01;20.40;74.00
45060;DHT22;30799;49.060;9.312;2023-01-10T14:40:36;20.40;74.10
45060;DHT22;30799;49.060;9.312;2023-01-10T14:43:12;20.40;74.10
45060;DHT22;30799;49.060;9.312;2023-01-10T14:45:57;20.30;74.10
45060;DHT22;30799;49.060;9.312;2023-01-10T14:48:32;20.40;74.20
45060;DHT22;30799;49.060;9.312;2023-01-10T14:53:37;20.40;74.10
45060;DHT22;30799;49.060;9.312;2023-01-10T14:56:20;20.30;74.10
45060;DHT22;30799;49.060;9.312;2023-01-10T14:58:47;20.30;74.20
45060;DHT22;30799;49.060;9.312;2023-01-10T15:01:27;20.30;74.20
45060;DHT22;30799;49.060;9.312;2023-01-10T15:03:56;20.30;74.20
45060;DHT22;30799;49.060;9.312;2023-01-10T15:06:23;20.30;74.20
45060;DHT22;30799;49.060;9.312;2023-01-10T15:08:56;20.30;74.20
45060;DHT22;30799;49.060;9.312;2023-01-10T15:11:24;20.30;74.20
45060;DHT22;30799;49.060;9.312;2023-01-10T15:13:55;20.30;74.20
45060;DHT22;30799;49.060;9.312;2023-01-10T15:16:25;20.30;74.20
45060;DHT22;30799;49.060;9.312;2023-01-10T15:18:54;20.30;74.30
45060;DHT22;30799;49.060;9.312;2023-01-10T15:21:22;20.30;74.20
45060;DHT22;30799;49.060;9.312;2023-01-10T15:23:49;20.30;74.30
45060;DHT22;30799;49.060;9.312;2023-01-10T15:26:18;20.30;74.30
45060;DHT22;30799;49.060;9.312;2023-01-10T15:29:12;20.30;74.20
45060;DHT22;30799;49.060;9.312;2023-01-10T15:31:40;20.30;74.20
45060;DHT22;30799;49.060;9.312;2023-01-10T15:34:10;20.30;74.20
45060;DHT22;30799;49.060;9.312;2023-01-10T15:37:04;19.30;58.50
45060;DHT22;30799;49.060;9.312;2023-01-10T15:39:40;18.20;58.50
45060;DHT22;30799;49.060;9.312;2023-01-10T15:42:09;17.50;58.50
45060;DHT22;30799;49.060;9.312;2023-01-10T15:44:41;17.70;63.20
45060;DHT22;30799;49.060;9.312;2023-01-10T15:50:27;19.10;67.70
45060;DHT22;30799;49.060;9.312;2023-01-10T15:53:00;19.40;70.10
45060;DHT22;30799;49.060;9.312;2023-01-10T15:55:40;19.60;70.30
45060;DHT22;30799;49.060;9.312;2023-01-10T16:00:54;19.80;69.90
45060;DHT22;30799;49.060;9.312;2023-01-10T16:05:59;19.90;69.90
45060;DHT22;30799;49.060;9.312;2023-01-10T16:08:31;20.00;69.30
45060;DHT22;30799;49.060;9.312;2023-01-10T16:11:00;20.00;69.90
45060;DHT22;30799;49.060;9.312;2023-01-10T16:13:28;20.10;70.90
45060;DHT22;30799;49.060;9.312;2023-01-10T16:15:59;20.10;70.80
45060;DHT22;30799;49.060;9.312;2023-01-10T16:18:26;20.10;70.70
45060;DHT22;30799;49.060;9.312;2023-01-10T16:20:58;20.10;71.00
45060;DHT22;30799;49.060;9.312;2023-01-10T16:23:32;20.20;71.00
45060;DHT22;30799;49.060;9.312;2023-01-10T16:26:02;20.20;71.30
45060;DHT22;30799;49.060;9.312;2023-01-10T16:28:29;20.10;71.50
45060;DHT22;30799;49.060;9.312;2023-01-10T16:31:02;20.10;71.70
45060;DHT22;30799;49.060;9.312;2023-01-10T16:33:32;20.10;71.90
45060;DHT22;30799;49.060;9.312;2023-01-10T16:35:59;20.20;72.00
45060;DHT22;30799;49.060;9.312;2023-01-10T16:38:27;20.20;71.90
45060;DHT22;30799;49.060;9.312;2023-01-10T16:41:01;20.30;72.10
45060;DHT22;30799;49.060;9.312;2023-01-10T16:43:48;20.30;72.30
45060;DHT22;30799;49.060;9.312;2023-01-10T16:46:15;20.20;72.30
45060;DHT22;30799;49.060;9.312;2023-01-10T16:48:42;20.20;72.50
45060;DHT22;30799;49.060;9.312;2023-01-10T16:53:45;20.40;72.70
45060;DHT22;30799;49.060;9.312;2023-01-10T16:56:14;20.30;73.10
45060;DHT22;30799;49.060;9.312;2023-01-10T16:58:41;20.40;73.20
45060;DHT22;30799;49.060;9.312;2023-01-10T17:01:22;20.40;73.00
45060;DHT22;30799;49.060;9.312;2023-01-10T17:03:50;20.40;73.30
45060;DHT22;30799;49.060;9.312;2023-01-10T17:06:17;20.30;73.30
45060;DHT22;30799;49.060;9.312;2023-01-10T17:08:44;20.40;73.50
45060;DHT22;30799;49.060;9.312;2023-01-10T17:11:17;20.40;73.50
45060;DHT22;30799;49.060;9.312;2023-01-10T17:13:45;20.40;73.60
45060;DHT22;30799;49.060;9.312;2023-01-10T17:16:12;20.40;73.50
45060;DHT22;30799;49.060;9.312;2023-01-10T17:18:45;20.40;73.50
45060;DHT22;30799;49.060;9.312;2023-01-10T17:21:17;20.40;73.50
45060;DHT22;30799;49.060;9.312;2023-01-10T17:23:45;20.40;73.60
45060;DHT22;30799;49.060;9.312;2023-01-10T17:26:14;20.40;73.60
45060;DHT22;30799;49.060;9.312;2023-01-10T17:28:41;20.40;73.60
45060;DHT22;30799;49.060;9.312;2023-01-10T17:31:10;20.40;73.60
45060;DHT22;30799;49.060;9.312;2023-01-10T17:33:37;20.50;73.60
45060;DHT22;30799;49.060;9.312;2023-01-10T17:36:03;20.50;73.60
45060;DHT22;30799;49.060;9.312;2023-01-10T17:38:30;20.40;73.50